sensor_id;sensor_type;location;lat;lon;timestamp;temperature;humidity
3488;DHT22;38546;48.170;11.724;2022-12-24T00:01:01;10.80;99.90
3488;DHT22;38546;48.170;11.724;2022-12-24T00:03:51;10.70;99.90
3488;DHT22;38546;48.170;11.724;2022-12-24T00:06:40;10.80;99.90
3488;DHT22;38546;48.170;11.724;2022-12-24T00:09:29;10.70;99.90
3488;DHT22;38546;48.170;11.724;2022-12-24T00:12:19;10.70;99.90
3488;DHT22;38546;48.170;11.724;2022-12-24T00:15:09;10.70;99.90
3488;DHT22;38546;48.170;11.724;2022-12-24T00:17:58;10.70;99.90
3488;DHT22;38546;48.170;11.724;2022-12-24T00:20:48;10.60;99.90
3488;DHT22;38546;48.170;11.724;2022-12-24T00:23:39;10.70;99.90
3488;DHT22;38546;48.170;11.724;2022-12-24T00:26:30;10.60;99.90
3488;DHT22;38546;48.170;11.724;2022-12-24T00:29:20;10.60;99.90
3488;DHT22;38546;48.170;11.724;2022-12-24T00:32:09;10.60;99.90
3488;DHT22;38546;48.170;11.724;2022-12-24T00:34:58;10.60;99.90
3488;DHT22;38546;48.170;11.724;2022-12-24T00:37:49;10.70;99.90
3488;DHT22;38546;48.170;11.724;2022-12-24T00:40:39;10.70;99.90
3488;DHT22;38546;48.170;11.724;2022-12-24T00:43:29;10.70;99.90
3488;DHT22;38546;48.170;11.724;2022-12-24T00:46:18;10.60;99.90
3488;DHT22;38546;48.170;11.724;2022-12-24T00:49:10;10.60;99.90
3488;DHT22;38546;48.170;11.724;2022-12-24T00:52:00;10.60;99.90
3488;DHT22;38546;48.170;11.724;2022-12-24T00:54:51;10.60;99.90
3488;DHT22;38546;48.170;11.724;2022-12-24T00:57:40;10.50;99.90
3488;DHT22;38546;48.170;11.724;2022-12-24T01:00:30;10.50;99.90
3488;DHT22;38546;48.170;11.724;2022-12-24T01:03:20;10.70;99.90
3488;DHT22;38546;48.170;11.724;2022-12-24T01:06:12;10.60;99.90
3488;DHT22;38546;48.170;11.724;2022-12-24T01:09:02;10.60;99.90
3488;DHT22;38546;48.170;11.724;2022-12-24T01:11:51;10.70;99.90
3488;DHT22;38546;48.170;11.724;2022-12-24T01:14:42;10.60;99.90
3488;DHT22;38546;48.170;11.724;2022-12-24T01:17:32;10.80;99.90
3488;DHT22;38546;48.170;11.724;2022-12-24T01:20:22;10.70;99.90
3488;DHT22;38546;48.170;11.724;2022-12-24T01:23:12;10.80;99.90
3488;DHT22;38546;48.170;11.724;2022-12-24T01:26:02;10.80;99.90
3488;DHT22;38546;48.170;11.724;2022-12-24T01:28:52;10.90;99.90
3488;DHT22;38546;48.170;11.724;2022-12-24T01:31:41;11.00;99.90
3488;DHT22;38546;48.170;11.724;2022-12-24T01:34:30;10.90;99.90
3488;DHT22;38546;48.170;11.724;2022-12-24T01:37:19;10.70;99.90
3488;DHT22;38546;48.170;11.724;2022-12-24T01:40:14;10.60;99.90
3488;DHT22;38546;48.170;11.724;2022-12-24T01:43:24;10.60;99.90
3488;DHT22;38546;48.170;11.724;2022-12-24T01:46:22;10.70;99.90
3488;DHT22;38546;48.170;11.724;2022-12-24T01:49:15;10.50;99.90
3488;DHT22;38546;48.170;11.724;2022-12-24T01:52:10;10.60;99.90
3488;DHT22;38546;48.170;11.724;2022-12-24T01:55:15;10.60;99.90
3488;DHT22;38546;48.170;11.724;2022-12-24T01:58:07;10.70;99.90
3488;DHT22;38546;48.170;11.724;2022-12-24T02:00:57;10.70;99.90
3488;DHT22;38546;48.170;11.724;2022-12-24T02:03:47;10.70;99.90
3488;DHT22;38546;48.170;11.724;2022-12-24T02:06:36;10.60;99.90
3488;DHT22;38546;48.170;11.724;2022-12-24T02:09:26;10.80;99.90
3488;DHT22;38546;48.170;11.724;2022-12-24T02:12:16;10.80;99.90
3488;DHT22;38546;48.170;11.724;2022-12-24T02:15:08;10.70;99.90
3488;DHT22;38546;48.170;11.724;2022-12-24T02:18:23;10.70;99.90
3488;DHT22;38546;48.170;11.724;2022-12-24T02:21:50;10.90;99.90
3488;DHT22;38546;48.170;11.724;2022-12-24T02:27:53;10.80;99.90
3488;DHT22;38546;48.170;11.724;2022-12-24T02:30:53;10.90;99.90
3488;DHT22;38546;48.170;11.724;2022-12-24T02:33:58;10.90;99.90
3488;DHT22;38546;48.170;11.724;2022-12-24T02:37:46;11.00;99.90
3488;DHT22;38546;48.170;11.724;2022-12-24T02:41:01;10.90;99.90
3488;DHT22;38546;48.170;11.724;2022-12-24T02:43:54;10.90;99.90
3488;DHT22;38546;48.170;11.724;2022-12-24T02:46:45;10.80;99.90
3488;DHT22;38546;48.170;11.724;2022-12-24T02:49:37;10.90;99.90
3488;DHT22;38546;48.170;11.724;2022-12-24T02:52:35;10.80;99.90
3488;DHT22;38546;48.170;11.724;2022-12-24T03:04:38;10.90;99.90
3488;DHT22;38546;48.170;11.724;2022-12-24T03:07:46;10.90;99.90
3488;DHT22;38546;48.170;11.724;2022-12-24T03:13:38;10.90;99.90
3488;DHT22;38546;48.170;11.724;2022-12-24T03:16:27;11.10;99.90
3488;DHT22;38546;48.170;11.724;2022-12-24T03:19:18;11.00;99.90
3488;DHT22;38546;48.170;11.724;2022-12-24T03:22:10;10.80;99.90
3488;DHT22;38546;48.170;11.724;2022-12-24T03:25:00;10.80;99.90
3488;DHT22;38546;48.170;11.724;2022-12-24T03:27:51;10.90;99.90
3488;DHT22;38546;48.170;11.724;2022-12-24T03:30:44;11.10;99.90
3488;DHT22;38546;48.170;11.724;2022-12-24T03:33:34;11.00;99.90
3488;DHT22;38546;48.170;11.724;2022-12-24T03:36:23;11.00;99.90
3488;DHT22;38546;48.170;11.724;2022-12-24T03:39:13;11.00;99.90
3488;DHT22;38546;48.170;11.724;2022-12-24T03:42:03;11.10;99.90
3488;DHT22;38546;48.170;11.724;2022-12-24T03:44:53;11.00;99.90
3488;DHT22;38546;48.170;11.724;2022-12-24T03:47:42;11.00;99.90
3488;DHT22;38546;48.170;11.724;2022-12-24T03:50:31;11.00;99.90
3488;DHT22;38546;48.170;11.724;2022-12-24T03:53:20;11.10;99.90
3488;DHT22;38546;48.170;11.724;2022-12-24T03:56:09;11.10;99.90
3488;DHT22;38546;48.170;11.724;2022-12-24T03:58:59;11.20;99.90
3488;DHT22;38546;48.170;11.724;2022-12-24T04:01:49;11.00;99.90
3488;DHT22;38546;48.170;11.724;2022-12-24T04:04:39;11.00;99.90
3488;DHT22;38546;48.170;11.724;2022-12-24T04:07:28;11.10;99.90
3488;DHT22;38546;48.170;11.724;2022-12-24T04:10:19;11.10;99.90
3488;DHT22;38546;48.170;11.724;2022-12-24T04:13:09;11.10;99.90
3488;DHT22;38546;48.170;11.724;2022-12-24T04:16:01;11.10;99.90
3488;DHT22;38546;48.170;11.724;2022-12-24T04:18:51;11.10;99.90
3488;DHT22;38546;48.170;11.724;2022-12-24T04:21:41;11.10;99.90
3488;DHT22;38546;48.170;11.724;2022-12-24T04:24:30;11.10;99.90
3488;DHT22;38546;48.170;11.724;2022-12-24T04:27:20;11.10;99.90
3488;DHT22;38546;48.170;11.724;2022-12-24T04:30:09;11.20;99.90
3488;DHT22;38546;48.170;11.724;2022-12-24T04:32:59;11.30;99.90
3488;DHT22;38546;48.170;11.724;2022-12-24T04:35:48;11.10;99.90
3488;DHT22;38546;48.170;11.724;2022-12-24T04:38:37;11.10;99.90
3488;DHT22;38546;48.170;11.724;2022-12-24T04:41:27;11.20;99.90
3488;DHT22;38546;48.170;11.724;2022-12-24T04:44:16;11.30;99.90
3488;DHT22;38546;48.170;11.724;2022-12-24T04:47:06;11.30;99.90
3488;DHT22;38546;48.170;11.724;2022-12-24T04:49:55;11.20;99.90
3488;DHT22;38546;48.170;11.724;2022-12-24T04:52:44;11.20;99.90
3488;DHT22;38546;48.170;11.724;2022-12-24T04:55:33;11.40;99.90
3488;DHT22;38546;48.170;11.724;2022-12-24T04:58:24;11.40;99.90
3488;DHT22;38546;48.170;11.724;2022-12-24T05:01:20;11.30;99.90
3488;DHT22;38546;48.170;11.724;2022-12-24T05:04:12;11.40;99.90
3488;DHT22;38546;48.170;11.724;2022-12-24T05:07:02;11.50;99.90
3488;DHT22;38546;48.170;11.724;2022-12-24T05:09:52;11.30;99.90
3488;DHT22;38546;48.170;11.724;2022-12-24T05:12:41;11.30;99.90
3488;DHT22;38546;48.170;11.724;2022-12-24T05:15:31;11.40;99.90
3488;DHT22;38546;48.170;11.724;2022-12-24T05:18:21;11.30;99.90
3488;DHT22;38546;48.170;11.724;2022-12-24T05:21:13;11.50;99.90
3488;DHT22;38546;48.170;11.724;2022-12-24T05:24:04;11.30;99.90
3488;DHT22;38546;48.170;11.724;2022-12-24T05:27:12;11.30;99.90
3488;DHT22;38546;48.170;11.724;2022-12-24T05:30:03;11.30;99.90
3488;DHT22;38546;48.170;11.724;2022-12-24T05:32:52;11.30;99.90
3488;DHT22;38546;48.170;11.724;2022-12-24T05:35:42;11.30;99.90
3488;DHT22;38546;48.170;11.724;2022-12-24T05:38:31;11.50;99.90
3488;DHT22;38546;48.170;11.724;2022-12-24T05:41:20;11.50;99.90
3488;DHT22;38546;48.170;11.724;2022-12-24T05:44:10;11.50;99.90
3488;DHT22;38546;48.170;11.724;2022-12-24T05:46:58;11.40;99.90
3488;DHT22;38546;48.170;11.724;2022-12-24T05:49:47;11.30;99.90
3488;DHT22;38546;48.170;11.724;2022-12-24T05:52:37;11.10;99.90
3488;DHT22;38546;48.170;11.724;2022-12-24T05:55:26;11.10;99.90
3488;DHT22;38546;48.170;11.724;2022-12-24T05:58:15;11.40;99.90
3488;DHT22;38546;48.170;11.724;2022-12-24T06:01:04;11.40;99.90
3488;DHT22;38546;48.170;11.724;2022-12-24T06:03:55;11.10;99.90
3488;DHT22;38546;48.170;11.724;2022-12-24T06:06:44;11.20;99.90
3488;DHT22;38546;48.170;11.724;2022-12-24T06:09:33;11.20;99.90
3488;DHT22;38546;48.170;11.724;2022-12-24T06:12:22;11.30;99.90
3488;DHT22;38546;48.170;11.724;2022-12-24T06:15:11;11.20;99.90
3488;DHT22;38546;48.170;11.724;2022-12-24T06:18:00;11.20;99.90
3488;DHT22;38546;48.170;11.724;2022-12-24T06:20:54;11.20;99.90
3488;DHT22;38546;48.170;11.724;2022-12-24T06:23:45;11.20;99.90
3488;DHT22;38546;48.170;11.724;2022-12-24T06:26:34;11.30;99.90
3488;DHT22;38546;48.170;11.724;2022-12-24T06:29:24;11.40;99.90
3488;DHT22;38546;48.170;11.724;2022-12-24T06:32:12;11.30;99.90
3488;DHT22;38546;48.170;11.724;2022-12-24T06:35:01;11.40;99.90
3488;DHT22;38546;48.170;11.724;2022-12-24T06:37:51;11.40;99.90
3488;DHT22;38546;48.170;11.724;2022-12-24T06:40:41;11.40;99.90
3488;DHT22;38546;48.170;11.724;2022-12-24T06:43:32;11.40;99.90
3488;DHT22;38546;48.170;11.724;2022-12-24T06:46:25;11.50;99.90
3488;DHT22;38546;48.170;11.724;2022-12-24T06:49:15;11.40;99.90
3488;DHT22;38546;48.170;11.724;2022-12-24T06:52:04;11.20;99.90
3488;DHT22;38546;48.170;11.724;2022-12-24T06:54:53;11.20;99.90
3488;DHT22;38546;48.170;11.724;2022-12-24T06:57:43;11.10;99.90
3488;DHT22;38546;48.170;11.724;2022-12-24T07:00:32;11.00;99.90
3488;DHT22;38546;48.170;11.724;2022-12-24T07:03:21;11.10;99.90
3488;DHT22;38546;48.170;11.724;2022-12-24T07:06:32;11.10;99.90
3488;DHT22;38546;48.170;11.724;2022-12-24T07:09:21;11.00;99.90
3488;DHT22;38546;48.170;11.724;2022-12-24T07:12:10;10.80;99.90
3488;DHT22;38546;48.170;11.724;2022-12-24T07:15:01;11.20;99.90
3488;DHT22;38546;48.170;11.724;2022-12-24T07:17:50;10.90;99.90
3488;DHT22;38546;48.170;11.724;2022-12-24T07:20:41;10.90;99.90
3488;DHT22;38546;48.170;11.724;2022-12-24T07:23:30;10.70;99.90
3488;DHT22;38546;48.170;11.724;2022-12-24T07:26:20;10.50;99.90
3488;DHT22;38546;48.170;11.724;2022-12-24T07:29:09;10.70;99.90
3488;DHT22;38546;48.170;11.724;2022-12-24T07:31:59;10.50;99.90
3488;DHT22;38546;48.170;11.724;2022-12-24T07:34:48;10.60;99.90
3488;DHT22;38546;48.170;11.724;2022-12-24T07:37:38;10.50;99.90
3488;DHT22;38546;48.170;11.724;2022-12-24T07:40:27;10.50;99.90
3488;DHT22;38546;48.170;11.724;2022-12-24T07:43:16;10.70;99.90
3488;DHT22;38546;48.170;11.724;2022-12-24T07:46:05;10.50;99.90
3488;DHT22;38546;48.170;11.724;2022-12-24T07:48:54;10.70;99.90
3488;DHT22;38546;48.170;11.724;2022-12-24T07:51:44;10.70;99.90
3488;DHT22;38546;48.170;11.724;2022-12-24T07:54:33;10.80;99.90
3488;DHT22;38546;48.170;11.724;2022-12-24T07:57:22;10.70;99.90
3488;DHT22;38546;48.170;11.724;2022-12-24T08:00:13;10.60;99.90
3488;DHT22;38546;48.170;11.724;2022-12-24T08:03:02;10.90;99.90
3488;DHT22;38546;48.170;11.724;2022-12-24T08:05:52;10.60;99.90
3488;DHT22;38546;48.170;11.724;2022-12-24T08:08:42;10.50;99.90
3488;DHT22;38546;48.170;11.724;2022-12-24T08:11:31;10.60;99.90
3488;DHT22;38546;48.170;11.724;2022-12-24T08:14:21;10.50;99.90
3488;DHT22;38546;48.170;11.724;2022-12-24T08:17:11;10.60;99.90
3488;DHT22;38546;48.170;11.724;2022-12-24T08:20:00;10.80;99.90
3488;DHT22;38546;48.170;11.724;2022-12-24T08:22:50;10.60;99.90
3488;DHT22;38546;48.170;11.724;2022-12-24T08:25:45;10.70;99.90
3488;DHT22;38546;48.170;11.724;2022-12-24T08:28:36;10.90;99.90
3488;DHT22;38546;48.170;11.724;2022-12-24T08:31:26;10.70;99.90
3488;DHT22;38546;48.170;11.724;2022-12-24T08:34:15;10.60;99.90
3488;DHT22;38546;48.170;11.724;2022-12-24T08:37:04;10.80;99.90
3488;DHT22;38546;48.170;11.724;2022-12-24T08:39:54;10.80;99.90
3488;DHT22;38546;48.170;11.724;2022-12-24T08:42:44;10.60;99.90
3488;DHT22;38546;48.170;11.724;2022-12-24T08:45:34;10.70;99.90
3488;DHT22;38546;48.170;11.724;2022-12-24T08:48:26;10.90;99.90
3488;DHT22;38546;48.170;11.724;2022-12-24T08:51:15;10.80;99.90
3488;DHT22;38546;48.170;11.724;2022-12-24T08:54:07;10.90;99.90
3488;DHT22;38546;48.170;11.724;2022-12-24T08:56:56;10.90;99.90
3488;DHT22;38546;48.170;11.724;2022-12-24T08:59:45;10.80;99.90
3488;DHT22;38546;48.170;11.724;2022-12-24T09:02:35;10.70;99.90
3488;DHT22;38546;48.170;11.724;2022-12-24T09:05:25;10.70;99.90
3488;DHT22;38546;48.170;11.724;2022-12-24T09:08:14;10.90;99.90
3488;DHT22;38546;48.170;11.724;2022-12-24T09:11:13;11.00;99.90
3488;DHT22;38546;48.170;11.724;2022-12-24T09:14:04;10.90;99.90
3488;DHT22;38546;48.170;11.724;2022-12-24T09:16:53;10.90;99.90
3488;DHT22;38546;48.170;11.724;2022-12-24T09:19:43;10.90;99.90
3488;DHT22;38546;48.170;11.724;2022-12-24T09:22:37;10.90;99.90
3488;DHT22;38546;48.170;11.724;2022-12-24T09:25:26;10.80;99.90
3488;DHT22;38546;48.170;11.724;2022-12-24T09:28:16;10.90;99.90
3488;DHT22;38546;48.170;11.724;2022-12-24T09:31:06;11.10;99.90
3488;DHT22;38546;48.170;11.724;2022-12-24T09:33:56;11.00;99.90
3488;DHT22;38546;48.170;11.724;2022-12-24T09:36:45;11.10;99.90
3488;DHT22;38546;48.170;11.724;2022-12-24T09:39:35;11.00;99.90
3488;DHT22;38546;48.170;11.724;2022-12-24T09:44:24;11.10;99.90
3488;DHT22;38546;48.170;11.724;2022-12-24T09:48:44;11.10;99.90
3488;DHT22;38546;48.170;11.724;2022-12-24T09:51:44;11.10;99.90
3488;DHT22;38546;48.170;11.724;2022-12-24T09:54:51;10.90;99.90
3488;DHT22;38546;48.170;11.724;2022-12-24T09:57:48;11.00;99.90
3488;DHT22;38546;48.170;11.724;2022-12-24T10:00:39;11.30;99.90
3488;DHT22;38546;48.170;11.724;2022-12-24T10:03:30;11.30;99.90
3488;DHT22;38546;48.170;11.724;2022-12-24T10:12:21;11.10;99.90
3488;DHT22;38546;48.170;11.724;2022-12-24T10:15:30;11.20;99.90
3488;DHT22;38546;48.170;11.724;2022-12-24T10:20:04;11.30;99.90
3488;DHT22;38546;48.170;11.724;2022-12-24T10:29:20;11.30;99.90
3488;DHT22;38546;48.170;11.724;2022-12-24T10:32:27;11.20;99.90
3488;DHT22;38546;48.170;11.724;2022-12-24T10:35:22;11.10;99.90
3488;DHT22;38546;48.170;11.724;2022-12-24T10:38:15;11.20;99.90
3488;DHT22;38546;48.170;11.724;2022-12-24T10:41:04;11.40;99.90
3488;DHT22;38546;48.170;11.724;2022-12-24T10:43:54;11.20;99.90
3488;DHT22;38546;48.170;11.724;2022-12-24T10:46:45;11.30;99.90
3488;DHT22;38546;48.170;11.724;2022-12-24T10:49:46;11.20;99.90
3488;DHT22;38546;48.170;11.724;2022-12-24T10:53:37;11.10;99.90
3488;DHT22;38546;48.170;11.724;2022-12-24T10:56:29;11.00;99.90
3488;DHT22;38546;48.170;11.724;2022-12-24T10:59:27;11.00;99.90
3488;DHT22;38546;48.170;11.724;2022-12-24T11:02:37;11.20;99.90
3488;DHT22;38546;48.170;11.724;2022-12-24T11:05:30;11.10;99.90
3488;DHT22;38546;48.170;11.724;2022-12-24T11:08:22;11.20;99.90
3488;DHT22;38546;48.170;11.724;2022-12-24T11:11:18;11.00;99.90
3488;DHT22;38546;48.170;11.724;2022-12-24T11:14:14;11.10;99.90
3488;DHT22;38546;48.170;11.724;2022-12-24T11:17:05;11.20;99.90
3488;DHT22;38546;48.170;11.724;2022-12-24T11:19:55;11.20;99.90
3488;DHT22;38546;48.170;11.724;2022-12-24T11:22:48;11.30;99.90
3488;DHT22;38546;48.170;11.724;2022-12-24T11:25:40;11.60;99.90
3488;DHT22;38546;48.170;11.724;2022-12-24T11:28:35;11.60;99.90
3488;DHT22;38546;48.170;11.724;2022-12-24T11:31:25;11.90;99.90
3488;DHT22;38546;48.170;11.724;2022-12-24T11:34:30;11.90;99.90
3488;DHT22;38546;48.170;11.724;2022-12-24T11:37:23;12.20;99.90
3488;DHT22;38546;48.170;11.724;2022-12-24T11:40:20;12.30;99.90
3488;DHT22;38546;48.170;11.724;2022-12-24T11:43:20;12.10;99.90
3488;DHT22;38546;48.170;11.724;2022-12-24T11:46:19;11.90;99.90
3488;DHT22;38546;48.170;11.724;2022-12-24T11:49:30;11.90;99.90
3488;DHT22;38546;48.170;11.724;2022-12-24T11:52:23;11.90;99.90
3488;DHT22;38546;48.170;11.724;2022-12-24T11:55:20;11.70;99.90
3488;DHT22;38546;48.170;11.724;2022-12-24T11:59:12;11.90;99.90
3488;DHT22;38546;48.170;11.724;2022-12-24T12:02:27;11.50;99.90
3488;DHT22;38546;48.170;11.724;2022-12-24T12:05:31;11.70;99.90
3488;DHT22;38546;48.170;11.724;2022-12-24T12:08:21;11.70;99.90
3488;DHT22;38546;48.170;11.724;2022-12-24T12:11:12;11.70;99.90
3488;DHT22;38546;48.170;11.724;2022-12-24T12:14:03;11.70;99.90
3488;DHT22;38546;48.170;11.724;2022-12-24T12:26:46;11.50;99.90
3488;DHT22;38546;48.170;11.724;2022-12-24T12:29:43;11.20;99.90
3488;DHT22;38546;48.170;11.724;2022-12-24T12:32:47;11.30;99.90
3488;DHT22;38546;48.170;11.724;2022-12-24T12:35:46;11.10;99.90
3488;DHT22;38546;48.170;11.724;2022-12-24T12:38:36;11.00;99.90
3488;DHT22;38546;48.170;11.724;2022-12-24T12:41:42;10.90;99.90
3488;DHT22;38546;48.170;11.724;2022-12-24T13:00:08;11.00;99.90
3488;DHT22;38546;48.170;11.724;2022-12-24T13:07:33;10.80;99.90
3488;DHT22;38546;48.170;11.724;2022-12-24T13:20:23;11.00;99.90
3488;DHT22;38546;48.170;11.724;2022-12-24T13:23:20;10.90;99.90
3488;DHT22;38546;48.170;11.724;2022-12-24T13:26:12;11.00;99.90
3488;DHT22;38546;48.170;11.724;2022-12-24T13:29:28;10.90;99.90
3488;DHT22;38546;48.170;11.724;2022-12-24T13:32:45;11.00;99.90
3488;DHT22;38546;48.170;11.724;2022-12-24T13:36:00;11.00;99.90
3488;DHT22;38546;48.170;11.724;2022-12-24T13:38:57;11.10;99.90
3488;DHT22;38546;48.170;11.724;2022-12-24T13:41:51;10.80;99.90
3488;DHT22;38546;48.170;11.724;2022-12-24T13:44:40;10.80;99.90
3488;DHT22;38546;48.170;11.724;2022-12-24T13:47:31;10.80;99.90
3488;DHT22;38546;48.170;11.724;2022-12-24T13:50:23;10.80;99.90
3488;DHT22;38546;48.170;11.724;2022-12-24T13:56:46;10.90;99.90
3488;DHT22;38546;48.170;11.724;2022-12-24T13:59:38;10.90;99.90
3488;DHT22;38546;48.170;11.724;2022-12-24T14:02:31;10.70;99.90
3488;DHT22;38546;48.170;11.724;2022-12-24T14:05:45;10.80;99.90
3488;DHT22;38546;48.170;11.724;2022-12-24T14:08:43;10.80;99.90
3488;DHT22;38546;48.170;11.724;2022-12-24T14:12:15;10.80;99.90
3488;DHT22;38546;48.170;11.724;2022-12-24T14:19:56;10.60;99.90
3488;DHT22;38546;48.170;11.724;2022-12-24T14:22:47;10.60;99.90
3488;DHT22;38546;48.170;11.724;2022-12-24T14:25:37;10.60;99.90
3488;DHT22;38546;48.170;11.724;2022-12-24T14:28:35;10.40;99.90
3488;DHT22;38546;48.170;11.724;2022-12-24T14:31:30;10.40;99.90
3488;DHT22;38546;48.170;11.724;2022-12-24T14:34:19;10.30;99.90
3488;DHT22;38546;48.170;11.724;2022-12-24T14:37:11;10.40;99.90
3488;DHT22;38546;48.170;11.724;2022-12-24T14:40:02;10.40;99.90
3488;DHT22;38546;48.170;11.724;2022-12-24T14:43:19;10.40;99.90
3488;DHT22;38546;48.170;11.724;2022-12-24T14:47:00;10.60;99.90
3488;DHT22;38546;48.170;11.724;2022-12-24T14:50:23;10.60;99.90
3488;DHT22;38546;48.170;11.724;2022-12-24T14:53:53;10.60;99.90
3488;DHT22;38546;48.170;11.724;2022-12-24T14:57:17;10.70;99.90
3488;DHT22;38546;48.170;11.724;2022-12-24T15:00:19;10.60;99.90
3488;DHT22;38546;48.170;11.724;2022-12-24T15:03:13;10.40;99.90
3488;DHT22;38546;48.170;11.724;2022-12-24T15:06:09;10.40;99.90
3488;DHT22;38546;48.170;11.724;2022-12-24T15:09:01;10.40;99.90
3488;DHT22;38546;48.170;11.724;2022-12-24T15:11:53;10.20;99.90
3488;DHT22;38546;48.170;11.724;2022-12-24T15:14:44;10.30;99.90
3488;DHT22;38546;48.170;11.724;2022-12-24T15:17:33;10.10;99.90
3488;DHT22;38546;48.170;11.724;2022-12-24T15:20:25;10.10;99.90
3488;DHT22;38546;48.170;11.724;2022-12-24T15:23:21;9.70;99.90
3488;DHT22;38546;48.170;11.724;2022-12-24T15:26:29;9.50;99.90
3488;DHT22;38546;48.170;11.724;2022-12-24T15:29:22;9.40;99.90
3488;DHT22;38546;48.170;11.724;2022-12-24T15:32:18;9.30;99.90
3488;DHT22;38546;48.170;11.724;2022-12-24T15:35:34;9.20;99.90
3488;DHT22;38546;48.170;11.724;2022-12-24T15:38:37;9.10;99.90
3488;DHT22;38546;48.170;11.724;2022-12-24T15:41:34;9.00;99.90
3488;DHT22;38546;48.170;11.724;2022-12-24T15:44:27;9.00;99.90
3488;DHT22;38546;48.170;11.724;2022-12-24T15:47:25;8.90;99.90
3488;DHT22;38546;48.170;11.724;2022-12-24T15:50:33;9.00;99.90
3488;DHT22;38546;48.170;11.724;2022-12-24T15:53:42;9.00;99.90
3488;DHT22;38546;48.170;11.724;2022-12-24T15:56:37;8.90;99.90
3488;DHT22;38546;48.170;11.724;2022-12-24T15:59:33;8.80;99.90
3488;DHT22;38546;48.170;11.724;2022-12-24T16:02:40;8.90;99.90
3488;DHT22;38546;48.170;11.724;2022-12-24T16:05:35;8.90;99.90
3488;DHT22;38546;48.170;11.724;2022-12-24T16:08:36;8.90;99.90
3488;DHT22;38546;48.170;11.724;2022-12-24T16:11:35;9.00;99.90
3488;DHT22;38546;48.170;11.724;2022-12-24T16:14:25;9.00;99.90
3488;DHT22;38546;48.170;11.724;2022-12-24T16:17:18;9.00;99.90
3488;DHT22;38546;48.170;11.724;2022-12-24T16:20:17;8.90;99.90
3488;DHT22;38546;48.170;11.724;2022-12-24T16:23:19;8.90;99.90
3488;DHT22;38546;48.170;11.724;2022-12-24T16:26:09;8.80;99.90
3488;DHT22;38546;48.170;11.724;2022-12-24T16:28:58;8.80;99.90
3488;DHT22;38546;48.170;11.724;2022-12-24T16:31:53;8.90;99.90
3488;DHT22;38546;48.170;11.724;2022-12-24T16:34:44;9.00;99.90
3488;DHT22;38546;48.170;11.724;2022-12-24T16:37:33;9.10;99.90
3488;DHT22;38546;48.170;11.724;2022-12-24T16:40:22;9.00;99.90
3488;DHT22;38546;48.170;11.724;2022-12-24T16:43:12;9.00;99.90
3488;DHT22;38546;48.170;11.724;2022-12-24T16:46:20;9.10;99.90
3488;DHT22;38546;48.170;11.724;2022-12-24T16:49:16;9.00;99.90
3488;DHT22;38546;48.170;11.724;2022-12-24T16:52:14;8.90;99.90
3488;DHT22;38546;48.170;11.724;2022-12-24T16:55:05;8.90;99.90
3488;DHT22;38546;48.170;11.724;2022-12-24T16:57:54;9.00;99.90
3488;DHT22;38546;48.170;11.724;2022-12-24T17:00:44;9.00;99.90
3488;DHT22;38546;48.170;11.724;2022-12-24T17:03:33;8.80;99.90
3488;DHT22;38546;48.170;11.724;2022-12-24T17:06:22;8.80;99.90
3488;DHT22;38546;48.170;11.724;2022-12-24T17:09:11;8.90;99.90
3488;DHT22;38546;48.170;11.724;2022-12-24T17:12:01;8.90;99.90
3488;DHT22;38546;48.170;11.724;2022-12-24T17:14:50;8.90;99.90
3488;DHT22;38546;48.170;11.724;2022-12-24T17:17:40;8.90;99.90
3488;DHT22;38546;48.170;11.724;2022-12-24T17:20:29;8.80;99.90
3488;DHT22;38546;48.170;11.724;2022-12-24T17:23:18;8.90;99.90
3488;DHT22;38546;48.170;11.724;2022-12-24T17:26:09;8.80;99.90
3488;DHT22;38546;48.170;11.724;2022-12-24T17:28:59;8.70;99.90
3488;DHT22;38546;48.170;11.724;2022-12-24T17:31:51;8.90;99.90
3488;DHT22;38546;48.170;11.724;2022-12-24T17:34:41;8.90;99.90
3488;DHT22;38546;48.170;11.724;2022-12-24T17:37:30;8.80;99.90
3488;DHT22;38546;48.170;11.724;2022-12-24T17:40:19;8.80;99.90
3488;DHT22;38546;48.170;11.724;2022-12-24T17:43:09;8.90;99.90
3488;DHT22;38546;48.170;11.724;2022-12-24T17:46:06;8.90;99.90
3488;DHT22;38546;48.170;11.724;2022-12-24T17:48:56;9.00;99.90
3488;DHT22;38546;48.170;11.724;2022-12-24T17:51:46;9.00;99.90
3488;DHT22;38546;48.170;11.724;2022-12-24T17:54:35;9.00;99.90
3488;DHT22;38546;48.170;11.724;2022-12-24T17:57:24;9.00;99.90
3488;DHT22;38546;48.170;11.724;2022-12-24T18:00:14;8.90;99.90
3488;DHT22;38546;48.170;11.724;2022-12-24T18:03:04;8.80;99.90
3488;DHT22;38546;48.170;11.724;2022-12-24T18:05:53;8.80;99.90
3488;DHT22;38546;48.170;11.724;2022-12-24T18:08:43;8.70;99.90
3488;DHT22;38546;48.170;11.724;2022-12-24T18:11:35;8.70;99.90
3488;DHT22;38546;48.170;11.724;2022-12-24T18:14:24;8.60;99.90
3488;DHT22;38546;48.170;11.724;2022-12-24T18:17:14;8.60;99.90
3488;DHT22;38546;48.170;11.724;2022-12-24T18:20:03;8.60;99.90
3488;DHT22;38546;48.170;11.724;2022-12-24T18:22:56;8.60;99.90
3488;DHT22;38546;48.170;11.724;2022-12-24T18:25:45;8.60;99.90
3488;DHT22;38546;48.170;11.724;2022-12-24T18:28:35;8.50;99.90
3488;DHT22;38546;48.170;11.724;2022-12-24T18:31:24;8.50;99.90
3488;DHT22;38546;48.170;11.724;2022-12-24T18:34:14;8.50;99.90
3488;DHT22;38546;48.170;11.724;2022-12-24T18:37:04;8.50;99.90
3488;DHT22;38546;48.170;11.724;2022-12-24T18:39:53;8.40;99.90
3488;DHT22;38546;48.170;11.724;2022-12-24T18:42:42;8.40;99.90
3488;DHT22;38546;48.170;11.724;2022-12-24T18:45:32;8.40;99.90
3488;DHT22;38546;48.170;11.724;2022-12-24T18:48:21;8.40;99.90
3488;DHT22;38546;48.170;11.724;2022-12-24T18:51:11;8.40;99.90
3488;DHT22;38546;48.170;11.724;2022-12-24T18:54:02;8.30;99.90
3488;DHT22;38546;48.170;11.724;2022-12-24T18:56:52;8.30;99.90
3488;DHT22;38546;48.170;11.724;2022-12-24T18:59:42;8.30;99.90
3488;DHT22;38546;48.170;11.724;2022-12-24T19:02:31;8.20;99.90
3488;DHT22;38546;48.170;11.724;2022-12-24T19:05:20;8.20;99.90
3488;DHT22;38546;48.170;11.724;2022-12-24T19:08:09;8.20;99.90
3488;DHT22;38546;48.170;11.724;2022-12-24T19:10:58;8.20;99.90
3488;DHT22;38546;48.170;11.724;2022-12-24T19:13:48;8.10;99.90
3488;DHT22;38546;48.170;11.724;2022-12-24T19:16:39;8.10;99.90
3488;DHT22;38546;48.170;11.724;2022-12-24T19:19:29;8.10;99.90
3488;DHT22;38546;48.170;11.724;2022-12-24T19:22:19;8.10;99.90
3488;DHT22;38546;48.170;11.724;2022-12-24T19:25:08;8.10;99.90
3488;DHT22;38546;48.170;11.724;2022-12-24T19:27:57;8.10;99.90
3488;DHT22;38546;48.170;11.724;2022-12-24T19:30:46;8.00;99.90
3488;DHT22;38546;48.170;11.724;2022-12-24T19:33:43;8.00;99.90
3488;DHT22;38546;48.170;11.724;2022-12-24T19:36:36;8.00;99.90
3488;DHT22;38546;48.170;11.724;2022-12-24T19:39:25;8.00;99.90
3488;DHT22;38546;48.170;11.724;2022-12-24T19:42:14;8.00;99.90